sensor_id;sensor_type;location;lat;lon;timestamp;P1;durP1;ratioP1;P2;durP2;ratioP2
64018;SDS011;66942;52.138;5.216;2023-02-23T00:01:16;80.91;;;64.1;;
64018;SDS011;66942;52.138;5.216;2023-02-23T00:02:55;86.7;;;69.11;;
64018;SDS011;66942;52.138;5.216;2023-02-23T00:04:31;79.91;;;66.3;;
64018;SDS011;66942;52.138;5.216;2023-02-23T00:07:46;81.0;;;70.41;;
64018;SDS011;66942;52.138;5.216;2023-02-23T00:09:22;87.8;;;73.11;;
64018;SDS011;66942;52.138;5.216;2023-02-23T00:10:59;93.2;;;73.2;;
64018;SDS011;66942;52.138;5.216;2023-02-23T00:12:35;96.4;;;73.61;;
64018;SDS011;66942;52.138;5.216;2023-02-23T00:15:47;78.11;;;64.0;;
64018;SDS011;66942;52.138;5.216;2023-02-23T00:17:23;90.8;;;74.41;;
64018;SDS011;66942;52.138;5.216;2023-02-23T00:19:01;93.7;;;74.61;;
64018;SDS011;66942;52.138;5.216;2023-02-23T00:22:19;90.8;;;72.7;;
64018;SDS011;66942;52.138;5.216;2023-02-23T00:23:56;95.5;;;72.7;;
64018;SDS011;66942;52.138;5.216;2023-02-23T00:25:37;85.8;;;70.11;;
64018;SDS011;66942;52.138;5.216;2023-02-23T00:27:19;86.0;;;70.41;;
64018;SDS011;66942;52.138;5.216;2023-02-23T00:30:35;81.8;;;68.7;;
64018;SDS011;66942;52.138;5.216;2023-02-23T00:32:11;81.61;;;66.41;;
64018;SDS011;66942;52.138;5.216;2023-02-23T00:33:50;87.4;;;70.91;;
64018;SDS011;66942;52.138;5.216;2023-02-23T00:37:04;83.0;;;66.91;;
64018;SDS011;66942;52.138;5.216;2023-02-23T00:38:40;86.4;;;72.8;;
64018;SDS011;66942;52.138;5.216;2023-02-23T00:40:19;87.9;;;70.8;;
64018;SDS011;66942;52.138;5.216;2023-02-23T00:41:55;82.2;;;68.41;;
64018;SDS011;66942;52.138;5.216;2023-02-23T00:45:11;93.1;;;74.0;;
64018;SDS011;66942;52.138;5.216;2023-02-23T00:46:50;85.9;;;70.11;;
64018;SDS011;66942;52.138;5.216;2023-02-23T00:48:28;80.61;;;66.2;;
64018;SDS011;66942;52.138;5.216;2023-02-23T00:51:42;81.5;;;67.3;;
64018;SDS011;66942;52.138;5.216;2023-02-23T00:53:18;75.2;;;66.3;;
64018;SDS011;66942;52.138;5.216;2023-02-23T00:54:55;82.3;;;69.11;;
64018;SDS011;66942;52.138;5.216;2023-02-23T00:56:31;84.8;;;69.7;;
64018;SDS011;66942;52.138;5.216;2023-02-23T00:59:44;86.6;;;73.3;;
64018;SDS011;66942;52.138;5.216;2023-02-23T01:01:21;93.0;;;75.41;;
64018;SDS011;66942;52.138;5.216;2023-02-23T01:02:58;91.8;;;73.2;;
64018;SDS011;66942;52.138;5.216;2023-02-23T01:06:10;98.3;;;73.3;;
64018;SDS011;66942;52.138;5.216;2023-02-23T01:07:48;94.0;;;70.7;;
64018;SDS011;66942;52.138;5.216;2023-02-23T01:09:27;89.7;;;72.61;;
64018;SDS011;66942;52.138;5.216;2023-02-23T01:12:42;94.2;;;72.8;;
64018;SDS011;66942;52.138;5.216;2023-02-23T01:14:21;94.2;;;72.8;;
64018;SDS011;66942;52.138;5.216;2023-02-23T01:15:58;85.9;;;70.91;;
64018;SDS011;66942;52.138;5.216;2023-02-23T01:17:34;78.41;;;64.5;;
64018;SDS011;66942;52.138;5.216;2023-02-23T01:20:49;81.2;;;65.6;;
64018;SDS011;66942;52.138;5.216;2023-02-23T01:22:25;82.3;;;69.2;;
64018;SDS011;66942;52.138;5.216;2023-02-23T01:24:02;88.5;;;71.3;;
64018;SDS011;66942;52.138;5.216;2023-02-23T01:27:19;72.3;;;61.6;;
64018;SDS011;66942;52.138;5.216;2023-02-23T01:28:56;94.7;;;70.8;;
64018;SDS011;66942;52.138;5.216;2023-02-23T01:30:34;98.5;;;75.3;;
64018;SDS011;66942;52.138;5.216;2023-02-23T01:32:11;86.4;;;68.61;;
64018;SDS011;66942;52.138;5.216;2023-02-23T01:35:27;90.0;;;69.5;;
64018;SDS011;66942;52.138;5.216;2023-02-23T01:37:04;89.0;;;72.3;;
64018;SDS011;66942;52.138;5.216;2023-02-23T01:38:40;98.8;;;75.2;;
64018;SDS011;66942;52.138;5.216;2023-02-23T01:42:05;95.5;;;71.91;;
64018;SDS011;66942;52.138;5.216;2023-02-23T01:43:55;91.0;;;72.8;;
64018;SDS011;66942;52.138;5.216;2023-02-23T01:45:34;93.7;;;71.0;;
64018;SDS011;66942;52.138;5.216;2023-02-23T01:47:12;94.9;;;73.7;;
64018;SDS011;66942;52.138;5.216;2023-02-23T01:48:49;103.6;;;69.7;;
64018;SDS011;66942;52.138;5.216;2023-02-23T01:52:14;96.1;;;76.11;;
64018;SDS011;66942;52.138;5.216;2023-02-23T01:53:54;102.1;;;76.91;;
64018;SDS011;66942;52.138;5.216;2023-02-23T01:55:35;96.8;;;75.3;;
64018;SDS011;66942;52.138;5.216;2023-02-23T01:57:12;103.5;;;77.5;;
64018;SDS011;66942;52.138;5.216;2023-02-23T02:00:35;92.8;;;71.3;;
64018;SDS011;66942;52.138;5.216;2023-02-23T02:02:12;95.1;;;72.61;;
64018;SDS011;66942;52.138;5.216;2023-02-23T02:03:52;96.3;;;75.0;;
64018;SDS011;66942;52.138;5.216;2023-02-23T02:05:32;103.9;;;73.41;;
64018;SDS011;66942;52.138;5.216;2023-02-23T02:08:49;88.1;;;70.11;;
64018;SDS011;66942;52.138;5.216;2023-02-23T02:10:46;103.9;;;75.7;;
64018;SDS011;66942;52.138;5.216;2023-02-23T02:12:22;98.9;;;75.2;;
64018;SDS011;66942;52.138;5.216;2023-02-23T02:13:58;93.1;;;74.3;;
64018;SDS011;66942;52.138;5.216;2023-02-23T02:17:39;101.9;;;74.5;;
64018;SDS011;66942;52.138;5.216;2023-02-23T02:19:36;92.7;;;68.91;;
64018;SDS011;66942;52.138;5.216;2023-02-23T02:25:07;98.5;;;72.5;;
64018;SDS011;66942;52.138;5.216;2023-02-23T02:27:32;108.0;;;76.7;;
64018;SDS011;66942;52.138;5.216;2023-02-23T02:29:38;94.1;;;73.11;;
64018;SDS011;66942;52.138;5.216;2023-02-23T02:32:34;102.1;;;72.91;;
64018;SDS011;66942;52.138;5.216;2023-02-23T02:39:37;106.0;;;75.61;;
64018;SDS011;66942;52.138;5.216;2023-02-23T02:41:24;89.5;;;68.61;;
64018;SDS011;66942;52.138;5.216;2023-02-23T02:44:56;93.0;;;71.3;;
64018;SDS011;66942;52.138;5.216;2023-02-23T02:46:44;95.2;;;73.5;;
64018;SDS011;66942;52.138;5.216;2023-02-23T02:48:27;91.7;;;70.7;;
64018;SDS011;66942;52.138;5.216;2023-02-23T02:50:13;101.8;;;75.0;;
64018;SDS011;66942;52.138;5.216;2023-02-23T02:51:57;99.5;;;79.11;;
64018;SDS011;66942;52.138;5.216;2023-02-23T02:53:44;88.9;;;74.11;;
64018;SDS011;66942;52.138;5.216;2023-02-23T02:57:07;101.8;;;73.7;;
64018;SDS011;66942;52.138;5.216;2023-02-23T02:58:49;101.7;;;76.11;;
64018;SDS011;66942;52.138;5.216;2023-02-23T04:17:41;107.6;;;72.3;;
64018;SDS011;66942;52.138;5.216;2023-02-23T04:20:55;90.4;;;69.0;;
64018;SDS011;66942;52.138;5.216;2023-02-23T04:22:34;99.9;;;72.2;;
64018;SDS011;66942;52.138;5.216;2023-02-23T04:24:10;95.7;;;74.3;;
64018;SDS011;66942;52.138;5.216;2023-02-23T04:25:47;84.2;;;67.7;;
64018;SDS011;66942;52.138;5.216;2023-02-23T04:29:00;85.7;;;68.5;;
64018;SDS011;66942;52.138;5.216;2023-02-23T04:30:36;96.5;;;73.3;;
64018;SDS011;66942;52.138;5.216;2023-02-23T04:32:13;92.9;;;73.5;;
64018;SDS011;66942;52.138;5.216;2023-02-23T04:35:29;94.6;;;73.91;;
64018;SDS011;66942;52.138;5.216;2023-02-23T04:37:05;94.3;;;72.5;;
64018;SDS011;66942;52.138;5.216;2023-02-23T04:38:43;105.3;;;76.7;;
64018;SDS011;66942;52.138;5.216;2023-02-23T04:41:55;96.8;;;74.91;;
64018;SDS011;66942;52.138;5.216;2023-02-23T04:43:31;89.7;;;70.7;;
64018;SDS011;66942;52.138;5.216;2023-02-23T04:45:08;100.5;;;75.11;;
64018;SDS011;66942;52.138;5.216;2023-02-23T04:46:45;94.5;;;76.11;;
64018;SDS011;66942;52.138;5.216;2023-02-23T04:49:59;102.8;;;79.41;;
64018;SDS011;66942;52.138;5.216;2023-02-23T04:51:36;86.7;;;69.5;;
64018;SDS011;66942;52.138;5.216;2023-02-23T04:53:13;116.4;;;80.7;;
64018;SDS011;66942;52.138;5.216;2023-02-23T04:56:25;91.1;;;73.91;;
64018;SDS011;66942;52.138;5.216;2023-02-23T04:58:01;91.1;;;72.3;;
64018;SDS011;66942;52.138;5.216;2023-02-23T04:59:38;98.7;;;75.3;;
64018;SDS011;66942;52.138;5.216;2023-02-23T05:02:50;92.9;;;75.0;;
64018;SDS011;66942;52.138;5.216;2023-02-23T05:04:27;104.3;;;80.2;;
64018;SDS011;66942;52.138;5.216;2023-02-23T05:06:04;99.6;;;72.61;;
64018;SDS011;66942;52.138;5.216;2023-02-23T05:07:41;97.2;;;71.7;;
64018;SDS011;66942;52.138;5.216;2023-02-23T05:10:53;116.7;;;77.61;;
64018;SDS011;66942;52.138;5.216;2023-02-23T05:12:29;86.5;;;68.3;;
64018;SDS011;66942;52.138;5.216;2023-02-23T05:14:06;112.7;;;76.41;;
64018;SDS011;66942;52.138;5.216;2023-02-23T05:17:19;93.2;;;74.8;;
64018;SDS011;66942;52.138;5.216;2023-02-23T05:18:56;97.6;;;75.8;;
64018;SDS011;66942;52.138;5.216;2023-02-23T05:20:33;108.1;;;76.41;;
64018;SDS011;66942;52.138;5.216;2023-02-23T05:23:47;95.2;;;72.0;;
64018;SDS011;66942;52.138;5.216;2023-02-23T05:25:24;111.5;;;73.8;;
64018;SDS011;66942;52.138;5.216;2023-02-23T05:27:00;97.5;;;73.61;;
64018;SDS011;66942;52.138;5.216;2023-02-23T05:28:37;97.3;;;71.0;;
64018;SDS011;66942;52.138;5.216;2023-02-23T05:31:52;106.9;;;73.5;;
64018;SDS011;66942;52.138;5.216;2023-02-23T05:33:28;169.3;;;77.41;;
64018;SDS011;66942;52.138;5.216;2023-02-23T05:35:04;119.0;;;80.2;;
64018;SDS011;66942;52.138;5.216;2023-02-23T05:38:18;103.2;;;71.8;;
64018;SDS011;66942;52.138;5.216;2023-02-23T05:39:56;89.8;;;65.5;;
64018;SDS011;66942;52.138;5.216;2023-02-23T05:41:32;97.7;;;71.3;;
64018;SDS011;66942;52.138;5.216;2023-02-23T05:43:09;112.2;;;73.5;;
64018;SDS011;66942;52.138;5.216;2023-02-23T05:46:22;86.7;;;63.9;;
64018;SDS011;66942;52.138;5.216;2023-02-23T05:48:01;81.5;;;65.0;;
64018;SDS011;66942;52.138;5.216;2023-02-23T05:49:38;87.0;;;67.5;;
64018;SDS011;66942;52.138;5.216;2023-02-23T05:52:52;91.2;;;69.91;;
64018;SDS011;66942;52.138;5.216;2023-02-23T05:54:28;107.4;;;72.3;;
64018;SDS011;66942;52.138;5.216;2023-02-23T05:56:05;103.9;;;73.7;;
64018;SDS011;66942;52.138;5.216;2023-02-23T05:57:46;100.7;;;72.41;;
64018;SDS011;66942;52.138;5.216;2023-02-23T06:00:58;100.5;;;73.3;;
64018;SDS011;66942;52.138;5.216;2023-02-23T06:02:35;98.3;;;72.5;;
64018;SDS011;66942;52.138;5.216;2023-02-23T06:04:11;92.0;;;66.8;;
64018;SDS011;66942;52.138;5.216;2023-02-23T06:07:25;104.3;;;71.5;;
64018;SDS011;66942;52.138;5.216;2023-02-23T06:09:02;109.1;;;68.3;;
64018;SDS011;66942;52.138;5.216;2023-02-23T06:10:39;95.8;;;68.41;;
64018;SDS011;66942;52.138;5.216;2023-02-23T06:13:51;105.9;;;75.61;;
64018;SDS011;66942;52.138;5.216;2023-02-23T06:15:27;98.7;;;70.7;;
64018;SDS011;66942;52.138;5.216;2023-02-23T06:17:04;94.9;;;71.41;;
64018;SDS011;66942;52.138;5.216;2023-02-23T06:18:41;103.1;;;72.5;;
64018;SDS011;66942;52.138;5.216;2023-02-23T06:21:55;113.0;;;74.11;;
64018;SDS011;66942;52.138;5.216;2023-02-23T06:23:31;105.9;;;74.0;;
64018;SDS011;66942;52.138;5.216;2023-02-23T06:25:11;92.9;;;69.8;;
64018;SDS011;66942;52.138;5.216;2023-02-23T06:28:25;110.5;;;72.11;;
64018;SDS011;66942;52.138;5.216;2023-02-23T06:30:02;107.1;;;73.8;;
64018;SDS011;66942;52.138;5.216;2023-02-23T06:31:39;92.6;;;69.8;;
64018;SDS011;66942;52.138;5.216;2023-02-23T06:34:52;99.0;;;70.7;;
64018;SDS011;66942;52.138;5.216;2023-02-23T06:36:29;115.1;;;71.0;;
64018;SDS011;66942;52.138;5.216;2023-02-23T06:38:05;97.7;;;70.91;;
64018;SDS011;66942;52.138;5.216;2023-02-23T06:39:41;113.6;;;70.0;;
64018;SDS011;66942;52.138;5.216;2023-02-23T06:42:53;97.6;;;69.11;;
64018;SDS011;66942;52.138;5.216;2023-02-23T06:44:29;113.0;;;68.0;;
64018;SDS011;66942;52.138;5.216;2023-02-23T06:46:05;105.3;;;71.2;;
64018;SDS011;66942;52.138;5.216;2023-02-23T06:49:20;98.9;;;71.2;;
64018;SDS011;66942;52.138;5.216;2023-02-23T06:50:56;94.4;;;69.0;;
64018;SDS011;66942;52.138;5.216;2023-02-23T06:52:33;110.1;;;73.8;;
64018;SDS011;66942;52.138;5.216;2023-02-23T06:55:46;102.2;;;68.8;;
64018;SDS011;66942;52.138;5.216;2023-02-23T06:57:22;100.2;;;71.3;;
64018;SDS011;66942;52.138;5.216;2023-02-23T06:58:59;122.2;;;69.61;;
64018;SDS011;66942;52.138;5.216;2023-02-23T07:00:35;106.8;;;72.41;;
64018;SDS011;66942;52.138;5.216;2023-02-23T07:03:48;90.7;;;68.91;;
64018;SDS011;66942;52.138;5.216;2023-02-23T07:05:24;104.3;;;68.91;;
64018;SDS011;66942;52.138;5.216;2023-02-23T07:07:01;103.5;;;73.0;;
64018;SDS011;66942;52.138;5.216;2023-02-23T07:10:14;95.3;;;68.41;;
64018;SDS011;66942;52.138;5.216;2023-02-23T07:11:50;103.8;;;74.61;;
64018;SDS011;66942;52.138;5.216;2023-02-23T07:13:27;103.5;;;73.41;;
64018;SDS011;66942;52.138;5.216;2023-02-23T07:16:40;107.4;;;69.2;;
64018;SDS011;66942;52.138;5.216;2023-02-23T07:18:16;111.8;;;75.7;;
64018;SDS011;66942;52.138;5.216;2023-02-23T07:19:52;120.0;;;70.91;;
64018;SDS011;66942;52.138;5.216;2023-02-23T07:21:31;97.4;;;69.2;;
64018;SDS011;66942;52.138;5.216;2023-02-23T07:24:45;126.5;;;72.2;;
64018;SDS011;66942;52.138;5.216;2023-02-23T07:26:22;103.3;;;71.0;;
64018;SDS011;66942;52.138;5.216;2023-02-23T07:27:59;87.0;;;66.41;;
64018;SDS011;66942;52.138;5.216;2023-02-23T07:31:13;93.1;;;71.11;;
64018;SDS011;66942;52.138;5.216;2023-02-23T07:32:50;92.7;;;71.7;;
64018;SDS011;66942;52.138;5.216;2023-02-23T07:34:26;121.5;;;74.0;;
64018;SDS011;66942;52.138;5.216;2023-02-23T07:37:41;97.3;;;68.91;;
64018;SDS011;66942;52.138;5.216;2023-02-23T07:39:17;95.0;;;66.6;;
64018;SDS011;66942;52.138;5.216;2023-02-23T07:40:53;96.0;;;70.0;;
64018;SDS011;66942;52.138;5.216;2023-02-23T07:42:30;97.2;;;67.1;;
64018;SDS011;66942;52.138;5.216;2023-02-23T07:45:42;98.2;;;72.8;;
64018;SDS011;66942;52.138;5.216;2023-02-23T07:47:19;90.4;;;67.5;;
64018;SDS011;66942;52.138;5.216;2023-02-23T07:48:55;95.9;;;68.8;;
64018;SDS011;66942;52.138;5.216;2023-02-23T07:52:08;85.8;;;66.41;;
64018;SDS011;66942;52.138;5.216;2023-02-23T07:53:45;94.3;;;70.61;;
64018;SDS011;66942;52.138;5.216;2023-02-23T07:55:21;94.5;;;67.2;;
64018;SDS011;66942;52.138;5.216;2023-02-23T07:58:34;90.5;;;68.0;;
64018;SDS011;66942;52.138;5.216;2023-02-23T08:00:12;90.8;;;68.8;;
64018;SDS011;66942;52.138;5.216;2023-02-23T08:01:50;126.4;;;74.3;;
64018;SDS011;66942;52.138;5.216;2023-02-23T08:03:27;93.1;;;68.3;;
64018;SDS011;66942;52.138;5.216;2023-02-23T08:06:41;90.1;;;68.41;;
64018;SDS011;66942;52.138;5.216;2023-02-23T08:08:17;95.2;;;71.91;;
64018;SDS011;66942;52.138;5.216;2023-02-23T08:09:53;94.1;;;67.91;;
64018;SDS011;66942;52.138;5.216;2023-02-23T08:13:07;100.9;;;71.7;;
64018;SDS011;66942;52.138;5.216;2023-02-23T08:14:43;97.4;;;68.2;;
64018;SDS011;66942;52.138;5.216;2023-02-23T08:16:19;89.5;;;68.2;;
64018;SDS011;66942;52.138;5.216;2023-02-23T08:17:55;89.0;;;67.1;;
64018;SDS011;66942;52.138;5.216;2023-02-23T08:21:09;89.9;;;66.7;;
64018;SDS011;66942;52.138;5.216;2023-02-23T08:22:46;86.8;;;64.5;;
64018;SDS011;66942;52.138;5.216;2023-02-23T08:24:22;96.2;;;66.41;;
64018;SDS011;66942;52.138;5.216;2023-02-23T08:27:37;95.8;;;68.3;;
64018;SDS011;66942;52.138;5.216;2023-02-23T08:29:14;94.8;;;69.11;;
64018;SDS011;66942;52.138;5.216;2023-02-23T08:30:51;99.0;;;65.7;;
64018;SDS011;66942;52.138;5.216;2023-02-23T08:34:09;81.11;;;63.3;;
64018;SDS011;66942;52.138;5.216;2023-02-23T08:35:45;77.91;;;62.3;;
64018;SDS011;66942;52.138;5.216;2023-02-23T08:37:22;81.7;;;63.4;;
64018;SDS011;66942;52.138;5.216;2023-02-23T08:38:59;98.6;;;71.41;;
64018;SDS011;66942;52.138;5.216;2023-02-23T08:42:13;84.6;;;62.2;;
64018;SDS011;66942;52.138;5.216;2023-02-23T08:43:49;83.0;;;62.8;;
64018;SDS011;66942;52.138;5.216;2023-02-23T08:45:28;81.8;;;60.5;;
64018;SDS011;66942;52.138;5.216;2023-02-23T08:48:41;80.61;;;63.4;;
64018;SDS011;66942;52.138;5.216;2023-02-23T08:50:17;73.0;;;60.0;;
64018;SDS011;66942;52.138;5.216;2023-02-23T08:51:53;74.7;;;60.6;;
64018;SDS011;66942;52.138;5.216;2023-02-23T08:53:30;77.5;;;62.2;;
64018;SDS011;66942;52.138;5.216;2023-02-23T08:56:43;80.8;;;62.3;;
64018;SDS011;66942;52.138;5.216;2023-02-23T08:58:20;77.0;;;59.6;;
64018;SDS011;66942;52.138;5.216;2023-02-23T08:59:57;87.1;;;62.7;;
64018;SDS011;66942;52.138;5.216;2023-02-23T09:03:09;89.9;;;65.6;;
64018;SDS011;66942;52.138;5.216;2023-02-23T09:04:45;89.0;;;63.3;;
64018;SDS011;66942;52.138;5.216;2023-02-23T09:06:22;73.91;;;58.0;;
64018;SDS011;66942;52.138;5.216;2023-02-23T09:09:37;81.41;;;61.6;;
64018;SDS011;66942;52.138;5.216;2023-02-23T09:11:12;90.1;;;64.3;;
64018;SDS011;66942;52.138;5.216;2023-02-23T09:12:50;83.6;;;63.1;;
64018;SDS011;66942;52.138;5.216;2023-02-23T09:14:26;76.11;;;56.7;;
64018;SDS011;66942;52.138;5.216;2023-02-23T09:17:43;75.41;;;59.0;;
64018;SDS011;66942;52.138;5.216;2023-02-23T09:19:20;81.61;;;61.4;;
64018;SDS011;66942;52.138;5.216;2023-02-23T09:20:57;81.41;;;60.4;;
64018;SDS011;66942;52.138;5.216;2023-02-23T09:24:11;75.0;;;59.2;;
64018;SDS011;66942;52.138;5.216;2023-02-23T09:25:47;68.2;;;57.9;;
64018;SDS011;66942;52.138;5.216;2023-02-23T09:27:23;70.91;;;56.1;;
64018;SDS011;66942;52.138;5.216;2023-02-23T09:30:37;67.2;;;54.4;;
64018;SDS011;66942;52.138;5.216;2023-02-23T09:32:15;65.91;;;54.3;;
64018;SDS011;66942;52.138;5.216;2023-02-23T09:33:52;79.8;;;60.1;;
64018;SDS011;66942;52.138;5.216;2023-02-23T09:35:28;66.7;;;54.1;;
64018;SDS011;66942;52.138;5.216;2023-02-23T09:38:41;64.8;;;54.2;;
64018;SDS011;66942;52.138;5.216;2023-02-23T09:40:20;69.0;;;54.3;;
64018;SDS011;66942;52.138;5.216;2023-02-23T09:42:02;67.8;;;51.7;;
64018;SDS011;66942;52.138;5.216;2023-02-23T09:43:53;60.1;;;49.6;;
64018;SDS011;66942;52.138;5.216;2023-02-23T09:47:21;61.9;;;49.4;;
64018;SDS011;66942;52.138;5.216;2023-02-23T09:49:07;59.8;;;49.0;;
64018;SDS011;66942;52.138;5.216;2023-02-23T09:50:51;59.2;;;47.8;;
64018;SDS011;66942;52.138;5.216;2023-02-23T09:52:32;71.61;;;50.2;;
64018;SDS011;66942;52.138;5.216;2023-02-23T09:54:15;63.2;;;48.5;;
64018;SDS011;66942;52.138;5.216;2023-02-23T09:57:35;54.8;;;44.1;;
64018;SDS011;66942;52.138;5.216;2023-02-23T09:59:15;66.0;;;48.5;;
64018;SDS011;66942;52.138;5.216;2023-02-23T10:01:02;56.7;;;47.1;;
64018;SDS011;66942;52.138;5.216;2023-02-23T10:03:53;53.8;;;45.6;;
64018;SDS011;66942;52.138;5.216;2023-02-23T10:05:36;55.7;;;44.4;;
64018;SDS011;66942;52.138;5.216;2023-02-23T10:07:19;53.2;;;45.0;;
64018;SDS011;66942;52.138;5.216;2023-02-23T10:09:05;53.0;;;43.7;;
64018;SDS011;66942;52.138;5.216;2023-02-23T10:10:55;53.8;;;43.1;;
64018;SDS011;66942;52.138;5.216;2023-02-23T10:14:35;58.1;;;43.8;;
64018;SDS011;66942;52.138;5.216;2023-02-23T10:16:39;57.8;;;43.5;;
64018;SDS011;66942;52.138;5.216;2023-02-23T10:18:33;48.2;;;39.4;;
64018;SDS011;66942;52.138;5.216;2023-02-23T10:20:18;52.5;;;40.71;;
64018;SDS011;66942;52.138;5.216;2023-02-23T10:22:02;47.1;;;39.31;;
64018;SDS011;66942;52.138;5.216;2023-02-23T10:23:44;51.6;;;40.6;;
64018;SDS011;66942;52.138;5.216;2023-02-23T10:27:06;49.0;;;39.81;;
64018;SDS011;66942;52.138;5.216;2023-02-23T10:28:49;49.1;;;40.1;;
64018;SDS011;66942;52.138;5.216;2023-02-23T10:30:30;51.1;;;40.31;;
64018;SDS011;66942;52.138;5.216;2023-02-23T10:32:12;46.0;;;38.31;;
64018;SDS011;66942;52.138;5.216;2023-02-23T10:33:54;47.1;;;39.0;;
64018;SDS011;66942;52.138;5.216;2023-02-23T10:37:13;51.3;;;41.0;;
64018;SDS011;66942;52.138;5.216;2023-02-23T10:38:51;46.6;;;38.1;;
64018;SDS011;66942;52.138;5.216;2023-02-23T10:40:29;43.5;;;36.21;;
64018;SDS011;66942;52.138;5.216;2023-02-23T10:43:52;42.3;;;35.71;;
64018;SDS011;66942;52.138;5.216;2023-02-23T10:45:28;39.5;;;34.6;;
64018;SDS011;66942;52.138;5.216;2023-02-23T10:47:11;39.9;;;35.0;;
64018;SDS011;66942;52.138;5.216;2023-02-23T10:48:50;43.0;;;36.81;;
64018;SDS011;66942;52.138;5.216;2023-02-23T10:52:13;39.31;;;33.71;;
64018;SDS011;66942;52.138;5.216;2023-02-23T10:53:59;39.4;;;33.21;;
64018;SDS011;66942;52.138;5.216;2023-02-23T10:56:10;44.9;;;35.71;;
64018;SDS011;66942;52.138;5.216;2023-02-23T10:57:59;40.4;;;33.4;;
64018;SDS011;66942;52.138;5.216;2023-02-23T10:59:37;35.21;;;29.8;;
64018;SDS011;66942;52.138;5.216;2023-02-23T11:01:38;31.1;;;27.4;;
64018;SDS011;66942;52.138;5.216;2023-02-23T11:03:20;31.7;;;28.2;;
64018;SDS011;66942;52.138;5.216;2023-02-23T11:06:42;35.0;;;28.8;;
64018;SDS011;66942;52.138;5.216;2023-02-23T11:08:21;36.4;;;28.8;;
64018;SDS011;66942;52.138;5.216;2023-02-23T11:10:19;30.4;;;27.1;;
64018;SDS011;66942;52.138;5.216;2023-02-23T11:12:02;28.6;;;25.6;;
64018;SDS011;66942;52.138;5.216;2023-02-23T11:13:54;27.0;;;23.8;;
64018;SDS011;66942;52.138;5.216;2023-02-23T11:17:22;24.0;;;21.6;;
64018;SDS011;66942;52.138;5.216;2023-02-23T11:19:04;29.2;;;24.5;;
64018;SDS011;66942;52.138;5.216;2023-02-23T11:20:54;25.4;;;22.7;;
64018;SDS011;66942;52.138;5.216;2023-02-23T11:22:32;25.4;;;22.7;;
64018;SDS011;66942;52.138;5.216;2023-02-23T11:24:13;24.7;;;22.3;;
64018;SDS011;66942;52.138;5.216;2023-02-23T11:27:38;23.9;;;21.4;;
64018;SDS011;66942;52.138;5.216;2023-02-23T11:29:23;21.2;;;19.0;;
64018;SDS011;66942;52.138;5.216;2023-02-23T11:31:08;20.3;;;18.3;;
64018;SDS011;66942;52.138;5.216;2023-02-23T11:32:52;22.7;;;20.3;;
64018;SDS011;66942;52.138;5.216;2023-02-23T11:36:13;22.6;;;19.8;;
64018;SDS011;66942;52.138;5.216;2023-02-23T11:37:52;23.6;;;20.8;;
64018;SDS011;66942;52.138;5.216;2023-02-23T11:39:29;24.7;;;21.5;;
64018;SDS011;66942;52.138;5.216;2023-02-23T11:41:16;25.1;;;22.5;;
64018;SDS011;66942;52.138;5.216;2023-02-23T11:43:05;27.1;;;23.3;;
64018;SDS011;66942;52.138;5.216;2023-02-23T11:46:26;24.1;;;21.6;;
64018;SDS011;66942;52.138;5.216;2023-02-23T11:48:04;26.1;;;22.8;;
64018;SDS011;66942;52.138;5.216;2023-02-23T11:49:40;26.8;;;22.8;;
64018;SDS011;66942;52.138;5.216;2023-02-23T11:51:22;27.4;;;23.6;;
64018;SDS011;66942;52.138;5.216;2023-02-23T11:54:42;27.9;;;23.4;;
64018;SDS011;66942;52.138;5.216;2023-02-23T11:56:27;26.5;;;23.5;;
64018;SDS011;66942;52.138;5.216;2023-02-23T11:58:08;26.4;;;23.1;;
64018;SDS011;66942;52.138;5.216;2023-02-23T11:59:56;28.6;;;25.5;;
64018;SDS011;66942;52.138;5.216;2023-02-23T12:03:16;28.1;;;24.7;;
64018;SDS011;66942;52.138;5.216;2023-02-23T12:05:03;27.9;;;24.9;;
64018;SDS011;66942;52.138;5.216;2023-02-23T12:06:43;32.1;;;27.1;;
64018;SDS011;66942;52.138;5.216;2023-02-23T12:08:30;32.0;;;27.6;;
64018;SDS011;66942;52.138;5.216;2023-02-23T12:10:11;31.0;;;26.2;;
64018;SDS011;66942;52.138;5.216;2023-02-23T12:13:39;29.6;;;26.4;;
64018;SDS011;66942;52.138;5.216;2023-02-23T12:15:23;31.4;;;26.8;;
64018;SDS011;66942;52.138;5.216;2023-02-23T12:17:08;31.4;;;27.1;;
64018;SDS011;66942;52.138;5.216;2023-02-23T12:18:53;36.81;;;29.2;;
64018;SDS011;66942;52.138;5.216;2023-02-23T12:20:36;32.9;;;27.1;;
64018;SDS011;66942;52.138;5.216;2023-02-23T12:24:04;29.3;;;26.0;;
64018;SDS011;66942;52.138;5.216;2023-02-23T12:26:03;29.8;;;26.2;;
64018;SDS011;66942;52.138;5.216;2023-02-23T12:27:47;28.8;;;25.7;;
64018;SDS011;66942;52.138;5.216;2023-02-23T12:29:33;25.8;;;23.1;;
64018;SDS011;66942;52.138;5.216;2023-02-23T12:31:19;25.4;;;22.7;;
64018;SDS011;66942;52.138;5.216;2023-02-23T12:34:46;22.8;;;20.41;;
64018;SDS011;66942;52.138;5.216;2023-02-23T12:36:32;21.2;;;19.11;;
64018;SDS011;66942;52.138;5.216;2023-02-23T12:38:16;22.1;;;19.7;;
64018;SDS011;66942;52.138;5.216;2023-02-23T12:40:01;22.7;;;20.41;;
64018;SDS011;66942;52.138;5.216;2023-02-23T12:41:50;22.1;;;19.91;;
64018;SDS011;66942;52.138;5.216;2023-02-23T12:45:20;21.3;;;19.11;;
64018;SDS011;66942;52.138;5.216;2023-02-23T12:47:03;21.6;;;19.3;;
64018;SDS011;66942;52.138;5.216;2023-02-23T12:48:59;21.3;;;19.11;;
64018;SDS011;66942;52.138;5.216;2023-02-23T12:50:43;22.5;;;20.11;;
64018;SDS011;66942;52.138;5.216;2023-02-23T12:52:27;23.3;;;19.8;;
64018;SDS011;66942;52.138;5.216;2023-02-23T12:54:07;23.7;;;21.2;;
64018;SDS011;66942;52.138;5.216;2023-02-23T12:57:40;23.4;;;20.9;;
64018;SDS011;66942;52.138;5.216;2023-02-23T13:00:46;23.5;;;21.2;;
64018;SDS011;66942;52.138;5.216;2023-02-23T13:02:32;23.9;;;21.4;;
64018;SDS011;66942;52.138;5.216;2023-02-23T13:06:32;23.4;;;20.9;;
64018;SDS011;66942;52.138;5.216;2023-02-23T13:08:21;22.9;;;20.41;;
64018;SDS011;66942;52.138;5.216;2023-02-23T13:10:12;22.2;;;20.0;;
64018;SDS011;66942;52.138;5.216;2023-02-23T13:12:02;22.2;;;19.8;;
64018;SDS011;66942;52.138;5.216;2023-02-23T13:13:49;23.1;;;20.6;;
64018;SDS011;66942;52.138;5.216;2023-02-23T13:15:42;22.7;;;19.3;;
64018;SDS011;66942;52.138;5.216;2023-02-23T13:17:30;21.7;;;18.7;;
64018;SDS011;66942;52.138;5.216;2023-02-23T13:19:16;21.8;;;19.5;;
64018;SDS011;66942;52.138;5.216;2023-02-23T13:22:46;21.6;;;19.0;;
64018;SDS011;66942;52.138;5.216;2023-02-23T13:24:29;21.1;;;18.91;;
64018;SDS011;66942;52.138;5.216;2023-02-23T13:26:14;23.7;;;19.8;;
64018;SDS011;66942;52.138;5.216;2023-02-23T13:28:03;22.2;;;19.8;;
64018;SDS011;66942;52.138;5.216;2023-02-23T13:29:48;23.0;;;20.6;;
64018;SDS011;66942;52.138;5.216;2023-02-23T13:33:18;22.3;;;19.8;;
64018;SDS011;66942;52.138;5.216;2023-02-23T13:35:01;22.5;;;20.11;;
64018;SDS011;66942;52.138;5.216;2023-02-23T13:36:39;26.8;;;20.8;;
64018;SDS011;66942;52.138;5.216;2023-02-23T13:38:19;22.8;;;20.41;;
64018;SDS011;66942;52.138;5.216;2023-02-23T13:42:08;23.5;;;20.3;;
64018;SDS011;66942;52.138;5.216;2023-02-23T13:44:02;23.5;;;21.0;;
64018;SDS011;66942;52.138;5.216;2023-02-23T13:45:49;23.7;;;20.3;;
64018;SDS011;66942;52.138;5.216;2023-02-23T13:47:37;24.2;;;21.6;;
64018;SDS011;66942;52.138;5.216;2023-02-23T13:49:29;23.8;;;21.4;;
64018;SDS011;66942;52.138;5.216;2023-02-23T13:51:14;21.8;;;19.61;;
64018;SDS011;66942;52.138;5.216;2023-02-23T13:53:00;22.5;;;20.11;;
64018;SDS011;66942;52.138;5.216;2023-02-23T13:56:29;22.0;;;18.8;;
64018;SDS011;66942;52.138;5.216;2023-02-23T13:58:12;18.2;;;16.3;;
64018;SDS011;66942;52.138;5.216;2023-02-23T13:59:53;18.5;;;16.4;;